Time;durP1;ratioP1;P1;durP2;ratioP2;P2;SDS_P1;SDS_P2;PMS_P1;PMS_P2;Temp;Humidity;BMP_temperature;BMP_pressure;BME280_temperature;BME280_humidity;BME280_pressure;Samples;Min_cycle;Max_cycle;Signal;HPM_P1;HPM_P2
2024/04/10 00:01:17;;;;;;;4.15;2.42;;;8.60;99.90;;;;;;5487756;26;19998;-47
2024/04/10 00:03:45;;;;;;;5.22;2.30;;;8.60;99.90;;;;;;5486667;26;20516;-48
2024/04/10 00:06:12;;;;;;;5.85;2.53;;;8.70;99.90;;;;;;5485438;26;20071;-44
2024/04/10 00:08:39;;;;;;;4.60;2.47;;;8.70;99.90;;;;;;5487274;26;20006;-42
2024/04/10 00:11:06;;;;;;;4.70;2.50;;;8.60;99.90;;;;;;5478612;26;20478;-45
2024/04/10 00:13:34;;;;;;;3.60;2.38;;;8.70;99.90;;;;;;5487325;26;20011;-49
2024/04/10 00:16:07;;;;;;;6.80;2.40;;;8.70;99.90;;;;;;5483688;26;20006;-46
2024/04/10 00:18:35;;;;;;;3.88;2.30;;;8.70;99.90;;;;;;5487550;26;20347;-44
2024/04/10 00:21:02;;;;;;;3.67;2.35;;;8.70;99.90;;;;;;5484479;25;20005;-44
2024/04/10 00:23:30;;;;;;;6.65;2.65;;;8.60;99.90;;;;;;5479521;26;20002;-43
2024/04/10 00:25:59;;;;;;;4.20;2.47;;;8.60;99.90;;;;;;5493038;26;19997;-45
2024/04/10 00:28:29;;;;;;;4.28;2.58;;;8.60;99.90;;;;;;5486876;26;20006;-47
2024/04/10 00:30:56;;;;;;;4.18;2.38;;;8.60;99.90;;;;;;5488242;26;20001;-43
2024/04/10 00:33:24;;;;;;;4.45;2.58;;;8.60;99.90;;;;;;5482243;26;19998;-48
2024/04/10 00:35:59;;;;;;;3.85;2.50;;;8.60;99.90;;;;;;5489625;26;20029;-45
2024/04/10 00:38:28;;;;;;;5.85;2.50;;;8.60;99.90;;;;;;5483442;26;20070;-45
2024/04/10 00:41:01;;;;;;;7.20;2.50;;;8.60;99.90;;;;;;5481831;26;20023;-43
2024/04/10 00:43:28;;;;;;;6.93;2.53;;;8.60;99.90;;;;;;5484983;26;20006;-43
2024/04/10 00:45:58;;;;;;;4.30;2.50;;;8.60;99.90;;;;;;5480874;26;20013;-45
2024/04/10 00:48:25;;;;;;;3.63;2.38;;;8.60;99.90;;;;;;5484743;26;20041;-43
2024/04/10 00:50:53;;;;;;;4.35;2.33;;;8.60;99.90;;;;;;5488721;26;20497;-42
2024/04/10 00:53:21;;;;;;;4.90;2.38;;;8.60;99.90;;;;;;5485540;26;20034;-46
2024/04/10 00:55:48;;;;;;;4.20;2.50;;;8.60;99.90;;;;;;5486855;26;20002;-47
2024/04/10 00:58:15;;;;;;;6.65;2.78;;;8.60;99.90;;;;;;5483206;26;20046;-44
2024/04/10 01:00:43;;;;;;;4.55;2.67;;;8.60;99.90;;;;;;5491862;26;20042;-45
2024/04/10 01:03:10;;;;;;;9.68;2.72;;;8.60;99.90;;;;;;5487477;26;20402;-42
2024/04/10 01:05:37;;;;;;;5.28;2.50;;;8.60;99.90;;;;;;5489850;26;20070;-45
2024/04/10 01:08:05;;;;;;;3.88;2.50;;;8.60;99.90;;;;;;5486606;26;20017;-48
2024/04/10 01:10:33;;;;;;;5.57;2.70;;;8.60;99.90;;;;;;5488389;26;20059;-46
2024/04/10 01:13:01;;;;;;;4.55;2.33;;;8.60;99.90;;;;;;5479763;26;20012;-46
2024/04/10 01:15:28;;;;;;;4.35;2.45;;;8.50;99.90;;;;;;5482338;26;20013;-46
2024/04/10 01:17:55;;;;;;;3.75;2.40;;;8.50;99.90;;;;;;5492003;26;20082;-48
2024/04/10 01:20:22;;;;;;;4.13;2.60;;;8.60;99.90;;;;;;5474388;26;20007;-45
2024/04/10 01:22:50;;;;;;;4.93;2.40;;;8.60;99.90;;;;;;5481521;26;20002;-43
2024/04/10 01:25:18;;;;;;;8.25;2.40;;;8.60;99.90;;;;;;5487267;26;20026;-46
2024/04/10 01:27:45;;;;;;;6.28;2.60;;;8.60;99.90;;;;;;5494166;26;20288;-46
2024/04/10 01:30:12;;;;;;;6.70;2.65;;;8.60;99.90;;;;;;5486815;26;20006;-47
2024/04/10 01:32:38;;;;;;;8.32;2.85;;;8.60;99.90;;;;;;5489196;26;19998;-45
2024/04/10 01:35:06;;;;;;;4.80;2.50;;;8.60;99.90;;;;;;5483832;26;19994;-46
2024/04/10 01:37:33;;;;;;;6.10;2.55;;;8.60;99.90;;;;;;5487557;26;20006;-43
2024/04/10 01:40:00;;;;;;;4.90;2.40;;;8.60;99.90;;;;;;5489476;26;20026;-44
2024/04/10 01:42:27;;;;;;;4.80;2.50;;;8.60;99.90;;;;;;5487341;26;20006;-44
2024/04/10 01:44:54;;;;;;;4.45;2.47;;;8.60;99.90;;;;;;5486518;26;20038;-42
2024/04/10 01:47:21;;;;;;;5.20;2.60;;;8.60;99.90;;;;;;5478667;26;20749;-42
2024/04/10 01:49:50;;;;;;;4.82;2.47;;;8.60;99.90;;;;;;5491264;26;20086;-44
2024/04/10 01:52:17;;;;;;;3.95;2.40;;;8.50;99.90;;;;;;5485668;26;20059;-46
2024/04/10 01:54:46;;;;;;;4.55;2.50;;;8.50;99.90;;;;;;5476294;26;20002;-44
2024/04/10 01:57:13;;;;;;;6.38;2.70;;;8.50;99.90;;;;;;5487153;26;20038;-45
2024/04/10 01:59:40;;;;;;;5.57;2.58;;;8.40;99.90;;;;;;5490748;26;20033;-47
2024/04/10 02:02:07;;;;;;;6.30;2.63;;;8.40;99.90;;;;;;5493695;26;20003;-46
2024/04/10 02:04:34;;;;;;;6.20;2.60;;;8.50;99.90;;;;;;5486032;26;19995;-45
2024/04/10 02:07:04;;;;;;;6.65;2.65;;;8.40;99.90;;;;;;5491180;25;20016;-44
2024/04/10 02:09:31;;;;;;;6.00;2.58;;;8.50;99.90;;;;;;5481841;26;20027;-50
2024/04/10 02:11:59;;;;;;;5.82;2.78;;;8.50;99.90;;;;;;5484639;26;20037;-46
2024/04/10 02:14:28;;;;;;;6.15;2.63;;;8.40;99.90;;;;;;5483624;26;20013;-46
2024/04/10 02:16:55;;;;;;;6.45;2.80;;;8.40;99.90;;;;;;5487972;26;20008;-47
2024/04/10 02:19:22;;;;;;;4.55;2.70;;;8.40;99.90;;;;;;5482736;26;20346;-46
2024/04/10 02:21:49;;;;;;;6.75;2.70;;;8.40;99.90;;;;;;5490351;26;20114;-45
2024/04/10 02:24:16;;;;;;;5.20;2.50;;;8.40;99.90;;;;;;5485174;26;20490;-47
2024/04/10 02:26:44;;;;;;;5.68;2.50;;;8.40;99.90;;;;;;5475966;26;19998;-46
2024/04/10 02:29:11;;;;;;;5.10;2.80;;;8.40;99.90;;;;;;5477457;26;20018;-42
2024/04/10 02:31:39;;;;;;;3.75;2.50;;;8.50;99.90;;;;;;5486053;26;20022;-46
2024/04/10 02:34:06;;;;;;;8.05;2.83;;;8.40;99.90;;;;;;5473425;26;20333;-44
2024/04/10 02:36:33;;;;;;;8.95;3.17;;;8.40;99.90;;;;;;5484929;26;20036;-45
2024/04/10 02:39:00;;;;;;;7.78;2.80;;;8.30;99.90;;;;;;5479042;26;20002;-45
2024/04/10 02:41:27;;;;;;;5.53;2.90;;;8.30;99.90;;;;;;5480184;26;20006;-49
2024/04/10 02:43:54;;;;;;;5.97;2.90;;;8.30;99.90;;;;;;5486819;26;20393;-41
2024/04/10 02:46:21;;;;;;;5.55;2.72;;;8.40;99.90;;;;;;5481258;26;20002;-48
2024/04/10 02:48:48;;;;;;;6.93;3.20;;;8.40;99.90;;;;;;5492118;26;20013;-43
2024/04/10 02:51:15;;;;;;;5.35;2.85;;;8.40;99.90;;;;;;5486340;26;19998;-51
2024/04/10 02:53:42;;;;;;;5.68;2.90;;;8.40;99.90;;;;;;5485182;26;20013;-46
2024/04/10 02:56:09;;;;;;;4.15;2.60;;;8.40;99.90;;;;;;5468670;26;20380;-49
2024/04/10 02:58:36;;;;;;;4.38;2.75;;;8.40;99.90;;;;;;5485461;26;20018;-47
2024/04/10 03:01:04;;;;;;;6.05;2.90;;;8.40;99.90;;;;;;5488734;26;20401;-49
2024/04/10 03:03:31;;;;;;;8.55;2.88;;;8.40;99.90;;;;;;5486497;26;20002;-47
2024/04/10 03:06:04;;;;;;;6.95;3.35;;;8.30;99.90;;;;;;5492406;25;20044;-43
2024/04/10 03:08:32;;;;;;;5.18;2.60;;;8.40;99.90;;;;;;5486894;25;20047;-51
2024/04/10 03:10:59;;;;;;;4.88;2.70;;;8.30;99.90;;;;;;5480480;26;20447;-44
2024/04/10 03:13:27;;;;;;;4.97;2.72;;;8.40;99.90;;;;;;5488609;26;20002;-47
2024/04/10 03:15:54;;;;;;;4.20;2.50;;;8.40;99.90;;;;;;5491661;26;20012;-44
2024/04/10 03:18:21;;;;;;;5.53;2.78;;;8.40;99.90;;;;;;5488395;26;20467;-45
2024/04/10 03:20:48;;;;;;;7.95;2.92;;;8.40;99.90;;;;;;5488148;25;20026;-49
2024/04/10 03:23:16;;;;;;;7.72;3.00;;;8.40;99.90;;;;;;5480765;26;20017;-44
2024/04/10 03:25:43;;;;;;;5.80;2.97;;;8.40;99.90;;;;;;5476658;26;20006;-50
2024/04/10 03:28:10;;;;;;;6.72;2.60;;;8.40;99.90;;;;;;5521494;25;20007;-45
2024/04/10 03:30:37;;;;;;;6.55;3.00;;;8.40;99.90;;;;;;5489863;26;20022;-43
2024/04/10 03:33:04;;;;;;;5.28;2.80;;;8.40;99.90;;;;;;5485917;26;19998;-46
2024/04/10 03:35:32;;;;;;;5.47;3.00;;;8.40;99.90;;;;;;5480747;26;20539;-47
2024/04/10 03:37:59;;;;;;;8.02;2.97;;;8.40;99.90;;;;;;5476263;26;20461;-50
2024/04/10 03:40:27;;;;;;;7.25;3.40;;;8.40;99.90;;;;;;5486144;26;20055;-49
2024/04/10 03:42:55;;;;;;;8.13;3.13;;;8.40;99.90;;;;;;5484008;26;20005;-42
2024/04/10 03:45:22;;;;;;;5.00;2.97;;;8.40;99.90;;;;;;5483645;26;20086;-47
2024/04/10 03:47:49;;;;;;;5.78;3.00;;;8.40;99.90;;;;;;5489117;26;20021;-45
2024/04/10 03:50:16;;;;;;;6.50;3.00;;;8.30;99.90;;;;;;5484165;26;20012;-47
2024/04/10 03:52:46;;;;;;;6.80;2.80;;;8.30;99.90;;;;;;5477346;26;20069;-48
2024/04/10 03:55:13;;;;;;;6.15;2.88;;;8.30;99.90;;;;;;5484453;26;20082;-45
2024/04/10 03:57:40;;;;;;;6.47;2.70;;;8.30;99.90;;;;;;5486233;26;20013;-45
2024/04/10 04:00:10;;;;;;;7.57;3.30;;;8.30;99.90;;;;;;5486962;26;20446;-48
2024/04/10 04:02:39;;;;;;;7.15;3.20;;;8.40;99.90;;;;;;5489032;26;20507;-44
2024/04/10 04:05:06;;;;;;;6.20;3.25;;;8.40;99.90;;;;;;5478142;26;20017;-45
2024/04/10 04:07:34;;;;;;;5.63;2.90;;;8.40;99.90;;;;;;5486504;26;20002;-47
2024/04/10 04:10:01;;;;;;;5.78;3.40;;;8.40;99.90;;;;;;5490127;25;20475;-47
2024/04/10 04:12:28;;;;;;;5.50;3.42;;;8.40;99.90;;;;;;5477304;26;20003;-45
2024/04/10 04:14:55;;;;;;;7.07;3.33;;;8.40;99.90;;;;;;5487788;26;20763;-43
2024/04/10 04:17:22;;;;;;;9.27;3.70;;;8.40;99.90;;;;;;5485720;26;20031;-46
2024/04/10 04:19:49;;;;;;;10.05;3.33;;;8.40;99.90;;;;;;5491339;26;20084;-46
2024/04/10 04:22:17;;;;;;;7.63;3.47;;;8.40;99.90;;;;;;5480410;26;20077;-47
2024/04/10 04:24:44;;;;;;;13.13;3.63;;;8.30;99.90;;;;;;5492932;26;20002;-47
2024/04/10 04:27:12;;;;;;;9.15;3.40;;;8.30;99.90;;;;;;5487230;26;20466;-45
2024/04/10 04:29:39;;;;;;;9.35;3.10;;;8.40;99.90;;;;;;5483222;26;20002;-42
2024/04/10 04:32:06;;;;;;;6.90;3.38;;;8.30;99.90;;;;;;5478379;26;20014;-42
2024/04/10 04:34:33;;;;;;;6.38;3.30;;;8.30;99.90;;;;;;5465279;26;20011;-43
2024/04/10 04:37:00;;;;;;;9.30;3.33;;;8.30;99.90;;;;;;5485898;26;20002;-48
2024/04/10 04:39:28;;;;;;;9.52;3.30;;;8.30;99.90;;;;;;5479618;26;19998;-45
2024/04/10 04:41:55;;;;;;;6.80;3.33;;;8.20;99.90;;;;;;5484388;26;20033;-43
2024/04/10 04:44:22;;;;;;;7.95;2.70;;;8.20;99.90;;;;;;5481952;26;19998;-43
2024/04/10 04:46:49;;;;;;;10.48;3.28;;;8.20;99.90;;;;;;5484499;26;20014;-43
2024/04/10 04:49:16;;;;;;;5.57;3.08;;;8.20;99.90;;;;;;5486674;26;20050;-43
2024/04/10 04:51:44;;;;;;;7.10;3.05;;;8.30;99.90;;;;;;5488260;26;20009;-45
2024/04/10 04:54:11;;;;;;;7.00;2.97;;;8.30;99.90;;;;;;5468151;26;20026;-47
2024/04/10 04:56:37;;;;;;;9.50;3.53;;;8.30;99.90;;;;;;5482002;26;20034;-44
2024/04/10 04:59:05;;;;;;;5.70;3.25;;;8.30;99.90;;;;;;5467364;26;20023;-48
2024/04/10 05:01:32;;;;;;;7.68;3.38;;;8.30;99.90;;;;;;5472449;26;20002;-45
2024/04/10 05:06:45;;;;;;;9.98;3.35;;;8.40;99.90;;;;;;5469493;26;20034;-45
2024/04/10 05:09:12;;;;;;;7.32;3.47;;;8.40;99.90;;;;;;5478379;26;20039;-50
2024/04/10 05:11:40;;;;;;;7.68;3.25;;;8.40;99.90;;;;;;5486472;26;20017;-45
2024/04/10 05:14:07;;;;;;;6.22;2.90;;;8.40;99.90;;;;;;5488938;25;20468;-44
2024/04/10 05:16:34;;;;;;;6.72;3.40;;;8.50;99.90;;;;;;5488070;26;20006;-46
2024/04/10 05:19:04;;;;;;;7.82;3.30;;;8.40;99.90;;;;;;5489893;26;20015;-47
2024/04/10 05:21:32;;;;;;;11.13;3.28;;;8.60;99.90;;;;;;5484009;26;20002;-50
2024/04/10 05:23:59;;;;;;;7.03;3.05;;;8.70;99.90;;;;;;5487410;25;20037;-45
2024/04/10 05:26:26;;;;;;;5.15;2.85;;;8.60;99.90;;;;;;5489768;25;20002;-45
2024/04/10 05:28:54;;;;;;;9.07;3.20;;;8.70;99.90;;;;;;5490680;26;20001;-44
2024/04/10 05:31:21;;;;;;;10.57;3.70;;;8.70;99.90;;;;;;5487429;26;20006;-46
2024/04/10 05:33:51;;;;;;;7.20;3.08;;;8.70;99.90;;;;;;5491198;26;20347;-45
2024/04/10 05:36:19;;;;;;;8.57;3.60;;;8.80;99.90;;;;;;5486973;26;20014;-49
2024/04/10 05:38:46;;;;;;;8.70;3.40;;;8.90;99.90;;;;;;5487529;26;19998;-45
2024/04/10 05:41:13;;;;;;;6.85;3.45;;;8.80;99.90;;;;;;5481389;26;20021;-45
2024/04/10 05:43:44;;;;;;;8.23;3.67;;;8.90;99.90;;;;;;5494309;26;20002;-45
2024/04/10 05:46:12;;;;;;;5.70;3.33;;;8.90;99.90;;;;;;5482585;26;20019;-47
2024/04/10 05:48:39;;;;;;;5.68;3.17;;;8.90;99.90;;;;;;5493386;26;20039;-47
2024/04/10 05:51:08;;;;;;;7.07;3.20;;;9.00;99.90;;;;;;5487600;25;20705;-45
2024/04/10 05:53:35;;;;;;;6.53;3.22;;;9.00;99.90;;;;;;5484213;26;19998;-48
2024/04/10 05:56:06;;;;;;;10.25;3.92;;;9.00;99.90;;;;;;5489064;25;20005;-46
2024/04/10 05:58:35;;;;;;;9.98;3.00;;;8.90;99.90;;;;;;5483739;26;20005;-44
2024/04/10 06:01:07;;;;;;;6.63;3.50;;;8.90;99.90;;;;;;5487540;25;20022;-47
2024/04/10 06:03:35;;;;;;;7.38;3.30;;;8.90;99.90;;;;;;5486550;26;20010;-47
2024/04/10 06:06:12;;;;;;;7.57;3.47;;;9.00;99.90;;;;;;5485495;25;20009;-48
2024/04/10 06:08:40;;;;;;;10.88;3.45;;;9.00;99.90;;;;;;5483150;26;20010;-48
2024/04/10 06:11:09;;;;;;;6.60;3.70;;;9.10;99.90;;;;;;5481897;26;20013;-49
2024/04/10 06:13:36;;;;;;;8.73;3.58;;;9.10;99.90;;;;;;5480935;26;20018;-44
2024/04/10 06:16:05;;;;;;;8.07;3.45;;;9.20;99.90;;;;;;5491673;25;20475;-47
2024/04/10 06:18:32;;;;;;;6.15;3.45;;;9.10;99.90;;;;;;5490373;26;20467;-43
2024/04/10 06:21:00;;;;;;;7.85;3.55;;;9.00;99.90;;;;;;5492881;26;20041;-43
2024/04/10 06:23:29;;;;;;;8.38;3.60;;;9.00;99.90;;;;;;5489584;26;20397;-45
2024/04/10 06:25:57;;;;;;;10.25;3.75;;;9.00;99.90;;;;;;5486017;26;20006;-46
2024/04/10 06:28:25;;;;;;;11.10;4.18;;;9.00;99.90;;;;;;5491411;26;20018;-46
2024/04/10 06:31:03;;;;;;;7.32;3.80;;;9.10;99.90;;;;;;5490399;26;19993;-45
2024/04/10 06:33:31;;;;;;;6.68;3.63;;;9.20;99.90;;;;;;5479483;26;20501;-48
2024/04/10 06:36:05;;;;;;;9.75;3.70;;;9.30;99.90;;;;;;5489797;26;20033;-46
2024/04/10 06:38:32;;;;;;;9.63;3.42;;;9.30;99.90;;;;;;5481452;26;20482;-46
2024/04/10 06:41:01;;;;;;;10.15;4.07;;;9.20;99.90;;;;;;5488130;25;20001;-45
2024/04/10 06:43:28;;;;;;;6.90;3.67;;;9.10;99.90;;;;;;5487871;26;20044;-46
2024/04/10 06:46:03;;;;;;;9.00;3.78;;;9.00;99.90;;;;;;5485549;26;20058;-50
2024/04/10 06:48:30;;;;;;;8.70;3.85;;;9.10;99.90;;;;;;5486155;26;19998;-44
2024/04/10 06:51:02;;;;;;;8.68;4.03;;;9.30;99.90;;;;;;5485419;26;20021;-47
2024/04/10 06:53:29;;;;;;;6.88;3.70;;;9.40;99.90;;;;;;5483734;26;20074;-46
2024/04/10 06:55:59;;;;;;;8.75;3.70;;;9.30;99.90;;;;;;5479141;26;20431;-52
2024/04/10 06:58:30;;;;;;;8.10;3.00;;;9.30;99.90;;;;;;5483022;26;20002;-45
2024/04/10 07:00:59;;;;;;;10.30;4.07;;;9.30;99.90;;;;;;5487435;26;20434;-46
2024/04/10 07:03:28;;;;;;;7.47;3.53;;;9.30;99.90;;;;;;5490256;25;20064;-47
2024/04/10 07:06:05;;;;;;;8.05;3.33;;;9.50;99.90;;;;;;5491158;26;20005;-46
2024/04/10 07:08:33;;;;;;;12.60;3.80;;;9.40;99.90;;;;;;5497944;26;19994;-48
2024/04/10 07:11:01;;;;;;;9.75;3.47;;;9.60;99.90;;;;;;5486280;25;20007;-47
2024/04/10 07:13:28;;;;;;;6.30;3.17;;;9.80;99.90;;;;;;5488268;26;20568;-43
2024/04/10 07:15:59;;;;;;;8.65;3.58;;;9.70;99.90;;;;;;5490224;26;20097;-46
2024/04/10 07:18:30;;;;;;;8.90;3.75;;;9.60;99.90;;;;;;5489415;26;20340;-50
2024/04/10 07:21:01;;;;;;;8.88;3.33;;;9.80;99.90;;;;;;5488175;26;20025;-48
2024/04/10 07:23:29;;;;;;;10.48;3.90;;;10.00;99.90;;;;;;5486911;26;20037;-46
2024/04/10 07:26:16;;;;;;;8.15;3.67;;;10.10;99.90;;;;;;5495577;26;20012;-47
2024/04/10 07:28:44;;;;;;;10.18;3.45;;;10.20;99.90;;;;;;5493125;26;20010;-48
2024/04/10 07:31:22;;;;;;;8.80;3.85;;;10.40;99.90;;;;;;5482118;26;20002;-47
2024/04/10 07:33:51;;;;;;;6.22;3.58;;;10.30;99.90;;;;;;5491262;26;20013;-44
2024/04/10 07:36:19;;;;;;;7.90;4.28;;;10.40;99.90;;;;;;5475771;26;20083;-43
2024/04/10 07:38:46;;;;;;;5.53;3.50;;;10.40;99.90;;;;;;5482650;26;20419;-48
2024/04/10 07:41:14;;;;;;;12.65;3.97;;;10.30;99.90;;;;;;5480497;26;20002;-45
2024/04/10 07:43:43;;;;;;;9.43;4.95;;;10.00;99.90;;;;;;5487927;26;20378;-46
2024/04/10 07:46:13;;;;;;;9.80;3.90;;;10.00;99.90;;;;;;5477581;26;20010;-46
2024/04/10 07:48:42;;;;;;;9.43;3.67;;;10.00;99.90;;;;;;5497358;25;20021;-49
2024/04/10 07:51:13;;;;;;;8.60;3.80;;;10.00;99.90;;;;;;5477174;26;20520;-48
2024/04/10 07:53:41;;;;;;;11.95;3.72;;;10.00;99.90;;;;;;5489053;26;20046;-48
2024/04/10 07:56:12;;;;;;;14.50;5.05;;;10.00;99.90;;;;;;5476419;26;20010;-47
2024/04/10 07:58:40;;;;;;;9.05;3.97;;;10.20;99.90;;;;;;5489864;26;20467;-46
2024/04/10 08:01:08;;;;;;;12.30;3.92;;;10.40;99.90;;;;;;5493340;25;20006;-45
2024/04/10 08:03:36;;;;;;;10.82;4.18;;;10.40;99.90;;;;;;5492965;26;20014;-45
2024/04/10 08:06:05;;;;;;;9.82;3.97;;;10.40;99.90;;;;;;5477347;26;20030;-46
2024/04/10 08:08:32;;;;;;;14.32;4.90;;;10.50;99.90;;;;;;5485021;26;20013;-45
2024/04/10 08:11:02;;;;;;;7.80;3.90;;;10.50;99.90;;;;;;5479624;25;20509;-47
2024/04/10 08:13:31;;;;;;;9.10;4.72;;;10.50;99.90;;;;;;5484873;26;20484;-46
2024/04/10 08:16:00;;;;;;;12.52;4.38;;;10.50;99.90;;;;;;5483671;25;19998;-48
2024/04/10 08:18:28;;;;;;;9.32;3.70;;;10.50;99.90;;;;;;5484553;26;20405;-47
2024/04/10 08:21:02;;;;;;;7.47;3.95;;;10.50;99.90;;;;;;5483473;26;20046;-49
2024/04/10 08:23:31;;;;;;;11.18;4.40;;;10.50;99.90;;;;;;5483584;26;20034;-45
2024/04/10 08:25:59;;;;;;;9.48;4.25;;;10.60;99.90;;;;;;5493360;26;20319;-48
2024/04/10 08:28:26;;;;;;;13.13;4.55;;;10.60;99.90;;;;;;5486044;26;20029;-48
2024/04/10 08:30:54;;;;;;;9.77;4.07;;;10.60;99.90;;;;;;5488176;26;20002;-48
2024/04/10 08:33:26;;;;;;;10.82;4.63;;;10.80;99.90;;;;;;5481784;26;20561;-45
2024/04/10 08:35:59;;;;;;;12.77;4.43;;;10.80;99.90;;;;;;5490793;26;20001;-52
2024/04/10 08:38:26;;;;;;;9.05;3.88;;;10.80;99.90;;;;;;5484609;26;20055;-45
2024/04/10 08:40:55;;;;;;;9.65;4.40;;;10.90;99.90;;;;;;5542610;25;20016;-46
2024/04/10 08:43:22;;;;;;;13.25;4.40;;;11.00;99.90;;;;;;5484991;26;20298;-47
2024/04/10 08:45:50;;;;;;;7.70;4.53;;;10.90;99.90;;;;;;5485166;26;20018;-52
2024/04/10 08:48:18;;;;;;;12.27;4.25;;;11.10;99.90;;;;;;5481789;26;20519;-44
2024/04/10 08:50:46;;;;;;;8.18;4.22;;;11.20;99.90;;;;;;5489302;26;20013;-46
2024/04/10 08:53:14;;;;;;;11.52;4.55;;;11.40;99.90;;;;;;5477472;26;19995;-43
2024/04/10 08:55:46;;;;;;;9.00;4.15;;;11.60;99.90;;;;;;5488970;26;20398;-44
2024/04/10 08:58:28;;;;;;;10.00;4.90;;;11.80;99.90;;;;;;5481602;26;20406;-48
2024/04/10 09:00:55;;;;;;;10.93;4.80;;;11.90;99.90;;;;;;5490324;26;20070;-47
2024/04/10 09:03:23;;;;;;;8.32;5.35;;;11.90;99.90;;;;;;5484328;26;20106;-47
2024/04/10 09:05:50;;;;;;;12.80;4.80;;;12.10;99.90;;;;;;5486434;26;20086;-46
2024/04/10 09:08:17;;;;;;;9.57;4.25;;;12.30;99.90;;;;;;5484013;25;20021;-47
2024/04/10 09:10:53;;;;;;;10.55;4.43;;;12.50;99.90;;;;;;5489787;25;20002;-49
2024/04/10 09:13:20;;;;;;;8.18;4.40;;;12.70;99.90;;;;;;5484551;26;20098;-52
2024/04/10 09:15:56;;;;;;;10.18;4.75;;;12.70;99.90;;;;;;5487912;26;19998;-46
2024/04/10 09:18:23;;;;;;;11.90;4.75;;;13.00;99.90;;;;;;5484777;26;20006;-47
2024/04/10 09:20:50;;;;;;;10.35;4.47;;;13.30;99.90;;;;;;5486136;26;20120;-43
2024/04/10 09:23:17;;;;;;;9.00;4.65;;;13.40;99.90;;;;;;5482200;26;20346;-48
2024/04/10 09:25:47;;;;;;;10.50;4.60;;;13.70;99.90;;;;;;5493252;26;20006;-43
2024/04/10 09:28:14;;;;;;;10.32;5.30;;;13.40;99.90;;;;;;5482014;26;20588;-44
2024/04/10 09:30:42;;;;;;;9.18;4.40;;;13.40;99.90;;;;;;5479749;26;20007;-49
2024/04/10 09:33:10;;;;;;;9.65;4.90;;;13.50;99.90;;;;;;5461017;26;20475;-50
2024/04/10 09:35:39;;;;;;;10.75;4.78;;;13.60;99.90;;;;;;5484001;26;20012;-46
2024/04/10 09:38:06;;;;;;;11.05;4.78;;;14.10;99.90;;;;;;5471774;25;20021;-47
2024/04/10 09:40:36;;;;;;;9.13;5.43;;;14.30;99.90;;;;;;5470622;26;20003;-45
2024/04/10 09:43:04;;;;;;;10.82;4.88;;;14.60;99.90;;;;;;5485679;25;20009;-43
2024/04/10 09:45:33;;;;;;;10.35;4.57;;;14.60;99.90;;;;;;5476044;26;20033;-49
2024/04/10 09:48:08;;;;;;;9.80;5.78;;;14.50;99.90;;;;;;5486374;26;20013;-49
2024/04/10 09:50:37;;;;;;;10.40;4.90;;;14.20;99.90;;;;;;5478435;26;20021;-47
2024/04/10 09:53:06;;;;;;;7.75;5.03;;;14.50;99.90;;;;;;5484577;25;20043;-49
2024/04/10 09:55:40;;;;;;;10.60;5.40;;;14.10;99.90;;;;;;5481411;26;20625;-46
2024/04/10 09:58:09;;;;;;;11.02;5.43;;;14.10;99.90;;;;;;5484742;25;20077;-47
2024/04/10 10:00:37;;;;;;;9.52;4.93;;;14.50;99.90;;;;;;5476197;26;20013;-42
2024/04/10 10:03:08;;;;;;;10.20;5.30;;;14.20;99.90;;;;;;5486506;25;20014;-48
2024/04/10 10:05:37;;;;;;;11.65;5.50;;;13.90;99.90;;;;;;5481583;26;20379;-45
2024/04/10 10:08:13;;;;;;;10.40;5.40;;;13.70;99.90;;;;;;5475053;26;19998;-44
2024/04/10 10:10:50;;;;;;;11.60;6.50;;;13.80;99.90;;;;;;5473962;26;20021;-48
2024/04/10 10:13:34;;;;;;;13.50;5.43;;;13.80;99.90;;;;;;5477150;26;20013;-48
2024/04/10 10:16:03;;;;;;;8.95;5.30;;;13.30;99.90;;;;;;5482168;26;20013;-48
2024/04/10 10:18:30;;;;;;;10.73;5.63;;;13.40;99.90;;;;;;5484289;26;20435;-46
2024/04/10 10:21:05;;;;;;;8.52;5.28;;;13.30;99.90;;;;;;5482697;25;19997;-46
2024/04/10 10:23:37;;;;;;;10.75;5.40;;;13.20;99.90;;;;;;5480752;25;20028;-46
2024/04/10 10:26:08;;;;;;;13.45;5.15;;;13.20;99.90;;;;;;5492971;25;20002;-43
2024/04/10 10:28:36;;;;;;;9.55;5.90;;;13.10;99.90;;;;;;5482082;26;20474;-47
2024/04/10 10:31:12;;;;;;;11.18;5.72;;;13.20;99.90;;;;;;5477053;25;20021;-44
2024/04/10 10:33:42;;;;;;;9.63;5.47;;;13.50;99.90;;;;;;5487304;26;19999;-50
2024/04/10 10:36:10;;;;;;;9.82;5.28;;;13.20;99.90;;;;;;5477342;26;20030;-47
2024/04/10 10:38:37;;;;;;;12.07;5.28;;;13.10;99.90;;;;;;5479092;26;20503;-46
2024/04/10 10:41:09;;;;;;;11.98;5.80;;;13.00;99.90;;;;;;5483978;26;20402;-46
2024/04/10 10:43:44;;;;;;;8.45;5.15;;;13.00;99.90;;;;;;5484391;26;20002;-45
2024/04/10 10:46:12;;;;;;;10.52;5.53;;;13.00;99.90;;;;;;5482162;26;20343;-47
2024/04/10 10:48:41;;;;;;;9.82;5.13;;;13.00;99.90;;;;;;5481683;26;20035;-47
2024/04/10 10:51:09;;;;;;;11.32;5.25;;;13.30;99.90;;;;;;5476368;25;20138;-46
2024/04/10 10:53:36;;;;;;;10.70;4.90;;;13.40;99.90;;;;;;5483623;26;20017;-49
2024/04/10 10:56:03;;;;;;;13.43;5.35;;;13.60;99.90;;;;;;5484028;26;19997;-47
2024/04/10 10:58:30;;;;;;;13.82;5.43;;;13.70;99.90;;;;;;5473072;26;19999;-47
2024/04/10 11:00:57;;;;;;;10.40;5.15;;;13.50;99.90;;;;;;5480775;26;20001;-45
2024/04/10 11:03:29;;;;;;;9.57;5.35;;;13.90;99.90;;;;;;5477875;26;20349;-44
2024/04/10 11:06:07;;;;;;;10.02;4.95;;;14.20;99.90;;;;;;5476816;26;20034;-46
2024/04/10 11:08:35;;;;;;;9.95;4.82;;;14.30;99.90;;;;;;5487680;26;20013;-44
2024/04/10 11:11:04;;;;;;;8.60;4.97;;;14.70;99.90;;;;;;5482453;26;20454;-51
2024/04/10 11:13:33;;;;;;;10.93;4.63;;;14.60;99.90;;;;;;5488209;26;20061;-44
2024/04/10 11:16:02;;;;;;;9.70;5.22;;;14.50;99.90;;;;;;5481296;25;20038;-48
2024/04/10 11:18:29;;;;;;;7.78;5.38;;;14.50;99.90;;;;;;5483400;26;20114;-43
2024/04/10 11:20:56;;;;;;;10.20;5.40;;;15.00;99.90;;;;;;5488835;25;20636;-47
2024/04/10 11:23:25;;;;;;;10.15;5.32;;;15.60;99.90;;;;;;5479924;26;19994;-47
2024/04/10 11:25:53;;;;;;;8.02;5.00;;;15.70;99.90;;;;;;5496269;26;20012;-48
2024/04/10 11:28:20;;;;;;;10.25;5.63;;;16.10;99.90;;;;;;5481314;26;20006;-47
2024/04/10 11:30:47;;;;;;;8.95;6.15;;;16.50;99.90;;;;;;5480233;26;20042;-52
2024/04/10 11:33:13;;;;;;;12.75;6.43;;;16.80;99.90;;;;;;5485363;26;20013;-45
2024/04/10 11:35:41;;;;;;;11.07;5.93;;;17.00;99.90;;;;;;5478974;26;20027;-47
2024/04/10 11:38:08;;;;;;;9.48;6.20;;;17.00;99.90;;;;;;5481092;26;20219;-46
2024/04/10 11:40:35;;;;;;;8.30;5.88;;;16.90;99.90;;;;;;5482431;26;20035;-49
2024/04/10 11:43:03;;;;;;;9.52;5.57;;;16.50;99.90;;;;;;5482349;25;20024;-47
2024/04/10 11:45:30;;;;;;;8.68;5.38;;;16.50;99.90;;;;;;5482706;26;20060;-45
2024/04/10 11:47:58;;;;;;;10.07;6.45;;;16.90;99.90;;;;;;5474799;25;20046;-46
2024/04/10 11:50:26;;;;;;;10.60;6.22;;;17.70;99.90;;;;;;5485572;26;20020;-48
2024/04/10 11:52:53;;;;;;;8.38;6.00;;;17.60;99.90;;;;;;5488519;26;20012;-48
2024/04/10 11:55:20;;;;;;;10.05;5.68;;;17.80;99.90;;;;;;5486914;26;20017;-46
2024/04/10 11:57:47;;;;;;;9.68;6.32;;;18.20;99.90;;;;;;5486340;26;20019;-48
2024/04/10 12:00:14;;;;;;;8.05;5.55;;;18.40;99.90;;;;;;5482160;26;20006;-47
2024/04/10 12:02:42;;;;;;;7.20;5.07;;;18.90;99.90;;;;;;5491837;26;20021;-47
2024/04/10 12:05:09;;;;;;;7.05;5.93;;;19.00;99.90;;;;;;5477102;26;20010;-48
2024/04/10 12:07:38;;;;;;;7.50;5.78;;;18.80;99.90;;;;;;5487103;26;20044;-43
2024/04/10 12:10:05;;;;;;;6.72;5.53;;;19.50;99.90;;;;;;5483406;25;20009;-48
2024/04/10 12:12:33;;;;;;;10.40;6.13;;;20.20;99.90;;;;;;5486997;25;20006;-45
2024/04/10 12:15:01;;;;;;;8.68;6.18;;;19.90;98.70;;;;;;5485348;25;20001;-46
2024/04/10 12:17:30;;;;;;;8.75;5.90;;;19.50;97.50;;;;;;5485949;26;20008;-44
2024/04/10 12:19:59;;;;;;;10.05;6.25;;;18.70;98.60;;;;;;5482780;26;20002;-50
2024/04/10 12:22:26;;;;;;;7.15;6.13;;;18.30;99.20;;;;;;5486599;26;20016;-51
2024/04/10 12:24:53;;;;;;;9.00;5.40;;;18.80;99.40;;;;;;5492587;26;20020;-43
2024/04/10 12:27:20;;;;;;;9.00;6.18;;;19.50;97.50;;;;;;5487111;26;20391;-44
2024/04/10 12:29:47;;;;;;;11.27;6.57;;;20.30;94.00;;;;;;5487644;26;20002;-45
2024/04/10 12:32:14;;;;;;;8.95;6.35;;;20.10;94.30;;;;;;5485373;26;20017;-47
2024/04/10 12:34:41;;;;;;;7.65;6.78;;;20.10;92.30;;;;;;5488285;26;20386;-46
2024/04/10 12:39:54;;;;;;;7.28;5.70;;;19.40;92.90;;;;;;5483945;26;20012;-45
2024/04/10 12:42:21;;;;;;;8.23;6.20;;;20.70;91.80;;;;;;5480931;26;20013;-44
2024/04/10 12:44:48;;;;;;;6.40;5.75;;;21.00;86.80;;;;;;5482220;26;20010;-52
2024/04/10 12:47:15;;;;;;;7.93;5.78;;;21.60;88.80;;;;;;5480030;26;20090;-46
2024/04/10 12:49:42;;;;;;;6.90;5.40;;;23.10;84.20;;;;;;5489126;26;19998;-49
2024/04/10 12:52:09;;;;;;;12.18;7.03;;;23.70;79.70;;;;;;5477840;26;20009;-45
2024/04/10 12:54:36;;;;;;;7.43;6.53;;;22.50;77.70;;;;;;5484251;26;19998;-46
2024/04/10 12:57:04;;;;;;;7.93;6.68;;;22.20;78.80;;;;;;5489092;25;20342;-48
2024/04/10 12:59:31;;;;;;;7.35;5.47;;;22.00;79.60;;;;;;5474482;25;20013;-51
2024/04/10 13:01:59;;;;;;;7.82;6.88;;;21.30;79.40;;;;;;5488399;25;20026;-42